createdAt,value
2023-05-09T00:00:01.607Z,9.40
2023-05-09T00:02:49.933Z,11.00
2023-05-09T00:05:18.819Z,10.40
2023-05-09T00:07:48.005Z,10.20
2023-05-09T00:10:16.492Z,10.80
2023-05-09T00:12:45.050Z,10.60
2023-05-09T00:15:23.905Z,10.80
2023-05-09T00:17:53.341Z,10.20
2023-05-09T00:20:21.994Z,10.70
2023-05-09T00:22:50.575Z,11.80
2023-05-09T00:25:19.070Z,10.50
2023-05-09T00:27:47.544Z,10.60
2023-05-09T00:30:16.434Z,11.10
2023-05-09T00:32:45.302Z,9.30
2023-05-09T00:35:14.265Z,10.50
2023-05-09T00:37:43.098Z,10.00
2023-05-09T00:40:12.421Z,8.60
2023-05-09T00:42:41.087Z,9.90
2023-05-09T00:45:10.294Z,8.60
2023-05-09T00:47:39.445Z,9.10
2023-05-09T00:50:09.461Z,8.20
2023-05-09T00:52:39.115Z,8.90
2023-05-09T00:55:09.267Z,8.90
2023-05-09T00:57:37.917Z,8.70
2023-05-09T01:00:13.473Z,7.80
2023-05-09T01:02:44.758Z,8.20
2023-05-09T01:05:13.937Z,10.20
2023-05-09T01:07:53.877Z,10.20
2023-05-09T01:10:31.149Z,7.60
2023-05-09T01:13:06.649Z,10.70
2023-05-09T01:15:54.275Z,7.30
2023-05-09T01:19:18.506Z,7.50
2023-05-09T01:21:49.456Z,9.20
2023-05-09T01:24:46.312Z,8.50
2023-05-09T01:27:39.434Z,8.70
2023-05-09T01:30:10.241Z,8.40
2023-05-09T01:32:40.864Z,9.00
2023-05-09T01:35:14.656Z,7.40
2023-05-09T01:37:45.149Z,8.60
2023-05-09T01:40:16.883Z,7.70
2023-05-09T01:42:51.353Z,7.40
2023-05-09T01:45:22.423Z,7.80
2023-05-09T01:47:51.717Z,6.30
2023-05-09T01:50:22.529Z,8.70
2023-05-09T01:52:55.280Z,8.40
2023-05-09T01:55:28.371Z,9.50
2023-05-09T01:57:59.093Z,9.00
2023-05-09T02:00:28.549Z,9.00
2023-05-09T02:02:58.116Z,8.40
2023-05-09T02:05:28.969Z,7.70
2023-05-09T02:07:58.872Z,9.00
2023-05-09T02:10:28.824Z,9.50
2023-05-09T02:13:00.058Z,8.20
2023-05-09T02:15:29.927Z,8.30
2023-05-09T02:17:58.313Z,9.10
2023-05-09T02:20:26.810Z,8.30
2023-05-09T02:22:55.284Z,7.70
2023-05-09T02:25:23.979Z,9.10
2023-05-09T02:27:53.855Z,8.70
2023-05-09T02:30:26.256Z,7.50
2023-05-09T02:33:00.142Z,9.00
2023-05-09T02:35:29.441Z,10.40
2023-05-09T02:37:59.751Z,8.60
2023-05-09T02:40:31.099Z,8.90
2023-05-09T02:43:00.006Z,8.30
2023-05-09T02:45:29.440Z,8.80
2023-05-09T02:47:58.154Z,13.70
2023-05-09T02:50:26.994Z,12.40
2023-05-09T02:52:55.491Z,11.50
2023-05-09T02:55:23.878Z,9.60
2023-05-09T02:58:01.841Z,9.60
2023-05-09T03:00:38.445Z,9.00
2023-05-09T03:03:07.326Z,8.50
2023-05-09T03:05:36.439Z,8.40
2023-05-09T03:08:05.750Z,9.20
2023-05-09T03:10:34.914Z,9.00
2023-05-09T03:13:04.283Z,8.80
2023-05-09T03:15:32.806Z,10.80
2023-05-09T03:18:01.586Z,8.80
2023-05-09T03:20:31.102Z,10.10
2023-05-09T03:23:00.493Z,9.90
2023-05-09T03:25:28.988Z,8.70
2023-05-09T03:27:58.783Z,8.60
2023-05-09T03:30:27.369Z,9.30
2023-05-09T03:32:56.729Z,8.30
2023-05-09T03:35:25.580Z,10.80
2023-05-09T03:37:55.487Z,9.10
2023-05-09T03:40:26.426Z,8.90
2023-05-09T03:43:04.534Z,9.60
2023-05-09T03:45:33.023Z,8.60
2023-05-09T03:48:01.740Z,8.60
2023-05-09T03:50:30.530Z,9.00
2023-05-09T03:52:59.798Z,10.50
2023-05-09T03:55:28.651Z,10.10
2023-05-09T03:57:57.160Z,10.60
2023-05-09T04:00:28.837Z,8.50
2023-05-09T04:03:03.722Z,9.20
2023-05-09T04:05:37.776Z,10.00
2023-05-09T04:08:06.868Z,8.20
2023-05-09T04:10:35.778Z,9.50
2023-05-09T04:13:05.423Z,9.40
2023-05-09T04:15:33.989Z,8.30
2023-05-09T04:18:04.337Z,9.90
2023-05-09T04:20:33.879Z,9.30
2023-05-09T04:23:03.721Z,9.20
2023-05-09T04:25:32.479Z,8.80
2023-05-09T04:28:01.254Z,9.20
2023-05-09T04:30:30.203Z,9.10
2023-05-09T04:32:59.384Z,9.00
2023-05-09T04:35:29.065Z,10.20
2023-05-09T04:37:58.663Z,10.60
2023-05-09T04:40:27.450Z,9.60
2023-05-09T04:43:00.958Z,10.40
2023-05-09T04:45:32.084Z,13.70
2023-05-09T04:48:01.467Z,8.90
2023-05-09T04:50:30.710Z,10.30
2023-05-09T04:52:59.288Z,9.40
2023-05-09T04:55:28.086Z,10.10
2023-05-09T04:57:57.479Z,9.10
2023-05-09T05:00:26.805Z,9.40
2023-05-09T05:07:02.669Z,9.30
2023-05-09T05:09:31.670Z,10.80
2023-05-09T05:12:02.923Z,9.70
2023-05-09T05:14:33.653Z,8.20
2023-05-09T05:17:02.944Z,9.40
2023-05-09T05:19:32.236Z,10.10
2023-05-09T05:22:01.132Z,9.80
2023-05-09T05:24:30.521Z,9.40
2023-05-09T05:26:59.222Z,9.10
2023-05-09T05:29:28.090Z,9.90
2023-05-09T05:31:57.009Z,8.50
2023-05-09T05:34:25.786Z,9.00
2023-05-09T05:36:54.305Z,9.10
2023-05-09T05:39:22.832Z,10.60
2023-05-09T05:41:52.348Z,10.20
2023-05-09T05:44:21.452Z,9.00
2023-05-09T05:46:50.555Z,9.80
2023-05-09T05:49:19.932Z,11.10
2023-05-09T05:51:48.732Z,12.20
2023-05-09T05:54:18.137Z,10.70
2023-05-09T05:56:46.911Z,11.60
2023-05-09T05:59:16.446Z,13.00
2023-05-09T06:01:45.147Z,11.20
2023-05-09T06:04:14.060Z,8.30
2023-05-09T06:06:44.132Z,11.50
2023-05-09T06:09:13.315Z,10.10
2023-05-09T06:11:41.887Z,11.00
2023-05-09T06:14:10.691Z,11.20
2023-05-09T06:16:39.776Z,11.00
2023-05-09T06:19:08.566Z,9.50
2023-05-09T06:21:37.586Z,10.30
2023-05-09T06:24:12.198Z,10.20
2023-05-09T06:26:43.961Z,11.50
2023-05-09T06:29:14.582Z,12.70
2023-05-09T06:31:43.339Z,11.50
2023-05-09T06:34:11.969Z,10.60
2023-05-09T06:36:41.048Z,10.20
2023-05-09T06:39:09.740Z,10.00
2023-05-09T06:41:38.556Z,10.10
2023-05-09T06:44:07.425Z,12.20
2023-05-09T06:46:36.145Z,9.90
2023-05-09T06:49:06.357Z,8.90
2023-05-09T06:51:34.924Z,10.50
2023-05-09T06:54:03.508Z,10.80
2023-05-09T06:56:32.314Z,10.50
2023-05-09T06:59:00.963Z,13.50
2023-05-09T07:01:30.189Z,9.40
2023-05-09T07:04:00.010Z,9.10
2023-05-09T07:06:28.786Z,8.10
2023-05-09T07:08:57.788Z,8.30
2023-05-09T07:11:28.445Z,6.90
2023-05-09T07:13:58.211Z,8.70
2023-05-09T07:16:30.325Z,8.30
2023-05-09T07:18:59.887Z,6.50
2023-05-09T07:21:28.461Z,7.80
2023-05-09T07:23:56.955Z,7.80
2023-05-09T07:26:25.736Z,7.00
2023-05-09T07:28:54.073Z,6.60
2023-05-09T07:31:22.765Z,6.40
2023-05-09T07:33:51.998Z,6.80
2023-05-09T07:36:21.858Z,6.30
2023-05-09T07:38:52.962Z,6.50
2023-05-09T07:41:22.789Z,6.20
2023-05-09T07:43:51.663Z,6.90
2023-05-09T07:46:20.326Z,7.30
2023-05-09T07:48:49.552Z,5.90
2023-05-09T07:51:18.735Z,6.70
2023-05-09T07:53:47.527Z,7.60
2023-05-09T07:56:16.780Z,6.80
2023-05-09T07:58:46.341Z,6.20
2023-05-09T08:01:15.118Z,6.90
2023-05-09T08:03:44.053Z,6.00
2023-05-09T08:06:12.913Z,7.20
2023-05-09T08:08:41.481Z,9.20
2023-05-09T08:11:10.167Z,8.40
2023-05-09T08:13:38.973Z,6.90
2023-05-09T08:16:07.711Z,7.30
2023-05-09T08:18:36.414Z,7.20
2023-05-09T08:21:05.746Z,6.10
2023-05-09T08:23:35.647Z,7.50
2023-05-09T08:26:04.323Z,7.90
2023-05-09T08:28:33.032Z,6.30
2023-05-09T08:31:01.789Z,5.10
2023-05-09T08:33:31.101Z,5.80
2023-05-09T08:35:59.794Z,7.70
2023-05-09T08:38:28.808Z,7.90
2023-05-09T08:41:01.577Z,7.70
2023-05-09T08:43:33.272Z,7.60
2023-05-09T08:46:07.918Z,5.50
2023-05-09T08:48:37.752Z,7.70
2023-05-09T08:51:07.494Z,6.30
2023-05-09T08:53:36.558Z,7.40
2023-05-09T08:56:05.561Z,8.40
2023-05-09T08:58:34.976Z,6.20
2023-05-09T09:01:07.155Z,6.80
2023-05-09T09:03:38.161Z,6.20
2023-05-09T09:06:08.057Z,6.20
2023-05-09T09:08:37.194Z,7.10
2023-05-09T09:11:05.899Z,9.20
2023-05-09T09:13:40.948Z,8.20
2023-05-09T09:16:14.769Z,10.50
2023-05-09T09:18:43.718Z,9.20
2023-05-09T09:21:16.203Z,8.50
2023-05-09T09:23:47.781Z,7.50
2023-05-09T09:26:16.839Z,8.50
2023-05-09T09:28:45.333Z,6.90
2023-05-09T09:31:22.076Z,6.30
2023-05-09T09:33:51.936Z,6.90
2023-05-09T09:36:28.797Z,6.40
2023-05-09T09:39:02.498Z,5.70
2023-05-09T09:41:33.764Z,8.00
2023-05-09T09:44:17.099Z,5.20
2023-05-09T09:46:54.393Z,5.60
2023-05-09T09:49:25.517Z,7.10
2023-05-09T09:51:56.300Z,5.70
2023-05-09T09:54:28.839Z,7.60
2023-05-09T09:56:57.808Z,7.00
2023-05-09T09:59:27.618Z,7.00
2023-05-09T10:02:07.492Z,8.50
2023-05-09T10:04:39.290Z,6.30
2023-05-09T10:07:13.866Z,5.80
2023-05-09T10:09:44.294Z,6.40
2023-05-09T10:12:14.949Z,6.10
2023-05-09T10:14:44.618Z,6.10
2023-05-09T10:17:15.406Z,6.30
2023-05-09T10:19:46.163Z,6.00
2023-05-09T10:22:18.091Z,6.20
2023-05-09T10:25:03.462Z,5.50
2023-05-09T10:27:36.186Z,6.80
2023-05-09T10:30:10.564Z,5.50
2023-05-09T10:32:48.865Z,6.70
2023-05-09T10:35:18.634Z,6.60
2023-05-09T10:37:48.667Z,7.70
2023-05-09T10:40:20.255Z,6.30
2023-05-09T10:42:49.199Z,8.10
2023-05-09T10:45:18.682Z,6.40
2023-05-09T10:47:50.089Z,4.30
2023-05-09T10:50:19.778Z,5.60
2023-05-09T10:53:30.027Z,6.10
2023-05-09T10:56:02.510Z,5.50
2023-05-09T10:58:33.949Z,5.10
2023-05-09T11:01:05.949Z,5.20
2023-05-09T11:03:58.531Z,4.50
2023-05-09T11:06:45.099Z,4.70
2023-05-09T11:09:38.344Z,6.80
2023-05-09T11:12:10.396Z,5.90
2023-05-09T11:14:47.195Z,5.90
2023-05-09T11:17:22.266Z,5.40
2023-05-09T11:19:52.270Z,7.00
2023-05-09T11:22:28.273Z,5.40
2023-05-09T11:25:30.370Z,3.50
2023-05-09T11:28:02.323Z,5.60
2023-05-09T11:30:44.590Z,5.70
2023-05-09T11:33:24.873Z,3.90
2023-05-09T11:36:32.423Z,6.20
2023-05-09T11:39:02.413Z,3.90
2023-05-09T11:41:31.662Z,4.90
2023-05-09T11:44:01.517Z,4.70
2023-05-09T11:46:31.397Z,2.80
2023-05-09T11:49:00.718Z,4.10
2023-05-09T11:51:30.144Z,3.80
2023-05-09T11:54:00.634Z,5.50
2023-05-09T11:56:31.814Z,4.70
2023-05-09T11:59:00.628Z,7.00
2023-05-09T12:01:33.181Z,5.10
2023-05-09T12:04:02.833Z,3.70
2023-05-09T12:06:33.327Z,5.60
2023-05-09T12:09:02.385Z,9.90
2023-05-09T12:11:32.647Z,4.10
2023-05-09T12:14:01.618Z,4.00
2023-05-09T12:16:46.167Z,3.90
2023-05-09T12:19:16.214Z,4.00
2023-05-09T12:21:47.106Z,4.60
2023-05-09T12:24:22.301Z,3.90
2023-05-09T12:26:51.752Z,6.10
2023-05-09T12:29:25.540Z,4.50
2023-05-09T12:31:55.081Z,4.10
2023-05-09T12:34:24.180Z,4.20
2023-05-09T12:36:53.500Z,4.90
2023-05-09T12:39:23.292Z,12.00
2023-05-09T12:42:00.916Z,2.60
2023-05-09T12:44:30.655Z,4.60
2023-05-09T12:47:02.274Z,5.20
2023-05-09T12:49:32.366Z,4.40
2023-05-09T12:52:03.828Z,14.10
2023-05-09T12:54:33.227Z,5.00
2023-05-09T12:57:04.883Z,3.70
2023-05-09T12:59:33.645Z,4.30
2023-05-09T13:02:02.765Z,6.00
2023-05-09T13:04:32.259Z,4.20
2023-05-09T13:07:01.142Z,3.50
2023-05-09T13:09:30.464Z,4.50
2023-05-09T13:11:59.607Z,8.70
2023-05-09T13:14:28.074Z,7.00
2023-05-09T13:16:56.782Z,3.20
2023-05-09T13:19:26.427Z,3.20
2023-05-09T13:21:55.825Z,3.20
2023-05-09T13:24:26.497Z,5.20
2023-05-09T13:26:56.163Z,3.80
2023-05-09T13:29:24.485Z,4.20
2023-05-09T13:31:53.245Z,3.90
2023-05-09T13:34:21.823Z,3.80
2023-05-09T13:36:50.324Z,4.90
2023-05-09T13:39:19.094Z,5.50
2023-05-09T13:41:48.881Z,5.70
2023-05-09T13:44:18.532Z,3.10
2023-05-09T13:46:47.092Z,6.90
2023-05-09T13:49:15.974Z,3.90
2023-05-09T13:51:47.038Z,8.00
2023-05-09T13:54:20.014Z,5.10
2023-05-09T13:56:49.521Z,7.60
2023-05-09T13:59:18.529Z,4.90
2023-05-09T14:01:50.191Z,7.80
2023-05-09T14:04:20.284Z,6.50
2023-05-09T14:06:50.383Z,3.40
2023-05-09T14:09:19.506Z,4.90
2023-05-09T14:11:52.692Z,4.00
2023-05-09T14:14:23.325Z,3.40
2023-05-09T14:16:52.321Z,5.00
2023-05-09T14:19:20.800Z,5.70
2023-05-09T14:21:49.709Z,5.20
2023-05-09T14:24:22.297Z,5.30
2023-05-09T14:26:54.334Z,4.70
2023-05-09T14:29:23.517Z,5.20
2023-05-09T14:31:51.955Z,4.70
2023-05-09T14:34:20.714Z,5.30
2023-05-09T14:36:50.426Z,6.10
2023-05-09T14:39:19.721Z,6.40
2023-05-09T14:41:50.340Z,5.30
2023-05-09T14:44:18.831Z,5.00
2023-05-09T14:46:48.704Z,5.50
2023-05-09T14:49:18.282Z,5.90
2023-05-09T14:51:48.169Z,4.00
2023-05-09T14:54:18.106Z,6.00
2023-05-09T14:56:49.217Z,5.20
2023-05-09T14:59:18.749Z,6.20
2023-05-09T15:01:48.370Z,5.50
2023-05-09T15:04:17.141Z,3.60
2023-05-09T15:06:46.306Z,6.70
2023-05-09T15:09:15.808Z,5.80
2023-05-09T15:11:48.435Z,6.60
2023-05-09T15:14:17.590Z,4.40
2023-05-09T15:16:48.765Z,4.30
2023-05-09T15:19:22.747Z,7.10
2023-05-09T15:21:52.386Z,5.80
2023-05-09T15:24:22.383Z,4.90
2023-05-09T15:26:52.612Z,5.70
2023-05-09T15:29:24.705Z,6.60
2023-05-09T15:31:55.508Z,5.30
2023-05-09T15:34:25.015Z,5.00
2023-05-09T15:36:54.443Z,4.90
2023-05-09T15:39:38.975Z,6.20
2023-05-09T15:42:16.175Z,6.80
2023-05-09T15:44:48.196Z,7.90
2023-05-09T15:47:19.175Z,5.30
2023-05-09T15:49:52.517Z,5.80
2023-05-09T15:52:22.701Z,5.70
2023-05-09T15:54:51.867Z,5.70
2023-05-09T15:57:21.884Z,5.50
2023-05-09T15:59:52.493Z,5.10
2023-05-09T16:02:23.918Z,4.40
2023-05-09T16:04:54.522Z,6.50
2023-05-09T16:07:26.602Z,7.50
2023-05-09T16:09:58.712Z,4.50
2023-05-09T16:12:33.174Z,5.90
2023-05-09T16:15:02.560Z,5.60
2023-05-09T16:17:34.401Z,4.50
2023-05-09T16:20:04.927Z,4.70
2023-05-09T16:22:34.248Z,5.10
2023-05-09T16:25:04.894Z,5.50
2023-05-09T16:27:34.172Z,6.10
2023-05-09T16:30:04.819Z,4.60
2023-05-09T16:32:34.662Z,5.70
2023-05-09T16:35:05.315Z,4.50
2023-05-09T16:37:35.685Z,5.20
2023-05-09T16:40:07.164Z,5.20
2023-05-09T16:42:37.246Z,6.60
2023-05-09T16:45:08.102Z,5.50
2023-05-09T16:47:38.330Z,5.90
2023-05-09T16:50:07.807Z,5.30
2023-05-09T16:52:38.144Z,7.20
2023-05-09T16:55:08.287Z,4.60
2023-05-09T16:57:40.991Z,8.20
2023-05-09T17:00:11.084Z,4.90
2023-05-09T17:02:40.767Z,5.80
2023-05-09T17:05:10.104Z,5.60
2023-05-09T17:07:40.201Z,5.40
2023-05-09T17:10:11.467Z,4.60
2023-05-09T17:12:40.323Z,5.40
2023-05-09T17:15:11.106Z,4.30
2023-05-09T17:17:40.025Z,5.00
2023-05-09T17:20:12.055Z,5.60
2023-05-09T17:22:41.842Z,5.10
2023-05-09T17:25:11.149Z,6.00
2023-05-09T17:27:42.609Z,4.70
2023-05-09T17:30:12.126Z,6.50
2023-05-09T17:32:43.784Z,4.80
2023-05-09T17:35:16.850Z,5.70
2023-05-09T17:37:48.213Z,6.30
2023-05-09T17:40:18.462Z,5.30
2023-05-09T17:42:48.914Z,7.30
2023-05-09T17:45:19.368Z,5.70
2023-05-09T17:47:48.167Z,5.80
2023-05-09T17:50:17.926Z,6.00
2023-05-09T17:52:50.265Z,7.20
2023-05-09T17:55:19.638Z,5.80
2023-05-09T17:57:49.132Z,6.70
2023-05-09T18:00:18.606Z,5.10
2023-05-09T18:02:48.658Z,5.70
2023-05-09T18:05:18.108Z,5.40
2023-05-09T18:07:48.822Z,6.20
2023-05-09T18:10:24.278Z,8.70
2023-05-09T18:12:55.662Z,6.20
2023-05-09T18:15:26.438Z,5.40
2023-05-09T18:17:58.085Z,6.00
2023-05-09T18:20:28.006Z,5.70
2023-05-09T18:22:57.935Z,6.50
2023-05-09T18:25:27.350Z,5.50
2023-05-09T18:27:57.172Z,6.10
2023-05-09T18:30:26.746Z,5.10
2023-05-09T18:33:00.475Z,5.70
2023-05-09T18:35:30.265Z,7.50
2023-05-09T18:38:00.206Z,5.10
2023-05-09T18:40:29.794Z,8.20
2023-05-09T18:42:59.064Z,7.60
2023-05-09T18:45:28.783Z,6.10
2023-05-09T18:47:58.242Z,5.70
2023-05-09T18:50:28.479Z,9.60
2023-05-09T18:52:59.905Z,6.60
2023-05-09T18:55:31.066Z,7.40
2023-05-09T18:58:00.605Z,6.00
2023-05-09T19:00:30.318Z,6.40
2023-05-09T19:03:00.162Z,9.20
2023-05-09T19:05:30.066Z,6.80
2023-05-09T19:07:59.647Z,5.40
2023-05-09T19:10:29.280Z,8.30
2023-05-09T19:12:59.681Z,6.70
2023-05-09T19:15:30.931Z,7.20
2023-05-09T19:18:01.579Z,5.80
2023-05-09T19:20:32.955Z,6.10
2023-05-09T19:23:02.730Z,6.40
2023-05-09T19:25:34.415Z,6.70
2023-05-09T19:28:05.593Z,5.40
2023-05-09T19:30:37.959Z,8.10
2023-05-09T19:33:07.357Z,6.80
2023-05-09T19:35:37.933Z,6.10
2023-05-09T19:38:08.179Z,7.30
2023-05-09T19:40:38.539Z,6.70
2023-05-09T19:43:09.728Z,8.20
2023-05-09T19:45:40.545Z,7.20
2023-05-09T19:48:15.999Z,6.00
2023-05-09T19:50:46.137Z,6.40
2023-05-09T19:53:16.453Z,5.70
2023-05-09T19:55:49.779Z,8.10
2023-05-09T19:58:23.739Z,6.30
2023-05-09T20:01:02.538Z,8.10
2023-05-09T20:03:37.395Z,7.90
2023-05-09T20:06:09.022Z,7.30
2023-05-09T20:08:39.277Z,6.60
2023-05-09T20:11:09.457Z,7.10
2023-05-09T20:13:38.836Z,6.60
2023-05-09T20:16:09.090Z,7.40
2023-05-09T20:18:39.478Z,9.40
2023-05-09T20:21:11.322Z,8.30
2023-05-09T20:23:41.850Z,8.80
2023-05-09T20:26:12.009Z,8.20
2023-05-09T20:28:41.772Z,7.60
2023-05-09T20:31:12.578Z,7.00
2023-05-09T20:33:41.715Z,8.80
2023-05-09T20:36:12.374Z,6.80
2023-05-09T20:38:41.803Z,8.00
2023-05-09T20:41:13.663Z,7.90
2023-05-09T20:43:44.280Z,7.50
2023-05-09T20:46:16.490Z,7.60
2023-05-09T20:48:52.425Z,8.00
2023-05-09T20:51:22.527Z,7.00
2023-05-09T20:53:52.286Z,8.50
2023-05-09T20:56:22.232Z,8.90
2023-05-09T20:58:51.911Z,6.30
2023-05-09T21:01:23.623Z,8.20
2023-05-09T21:03:53.002Z,9.60
2023-05-09T21:06:24.848Z,8.30
2023-05-09T21:09:05.713Z,6.90
2023-05-09T21:11:39.054Z,7.60
2023-05-09T21:14:16.357Z,8.10
2023-05-09T21:16:46.882Z,8.70
2023-05-09T21:19:16.791Z,8.80
2023-05-09T21:22:27.006Z,7.20
2023-05-09T21:24:56.292Z,7.60
2023-05-09T21:27:25.079Z,7.20
2023-05-09T21:29:54.253Z,9.10
2023-05-09T21:32:32.430Z,6.60
2023-05-09T21:35:02.816Z,8.40
2023-05-09T21:37:31.304Z,8.70
2023-05-09T21:40:05.675Z,8.30
2023-05-09T21:42:36.227Z,5.70
2023-05-09T21:45:06.500Z,8.50
2023-05-09T21:47:36.557Z,6.90
2023-05-09T21:50:06.438Z,7.80
2023-05-09T21:52:35.090Z,8.70
2023-05-09T21:55:04.384Z,7.10
2023-05-09T21:57:33.068Z,8.10
2023-05-09T22:00:02.271Z,7.10
2023-05-09T22:02:31.645Z,8.70
2023-05-09T22:05:01.399Z,7.20
2023-05-09T22:07:33.350Z,7.60
2023-05-09T22:10:03.889Z,8.90
2023-05-09T22:12:33.783Z,9.60
2023-05-09T22:15:03.496Z,8.10
2023-05-09T22:17:32.300Z,10.60
2023-05-09T22:20:01.704Z,8.10
2023-05-09T22:22:31.638Z,8.60
2023-05-09T22:25:00.292Z,9.70
2023-05-09T22:27:29.685Z,7.60
2023-05-09T22:30:03.851Z,7.00
2023-05-09T22:32:33.335Z,7.90
2023-05-09T22:35:04.975Z,8.80
2023-05-09T22:37:33.551Z,8.60
2023-05-09T22:40:02.237Z,7.40
2023-05-09T22:42:31.544Z,8.70
2023-05-09T22:45:09.225Z,6.60
2023-05-09T22:47:42.839Z,7.60
2023-05-09T22:50:12.849Z,8.90
2023-05-09T22:52:41.829Z,7.50
2023-05-09T22:55:10.331Z,9.80
2023-05-09T22:57:41.794Z,6.10
2023-05-09T23:00:11.365Z,7.20
2023-05-09T23:02:40.324Z,7.90
2023-05-09T23:05:09.894Z,7.50
2023-05-09T23:07:41.449Z,7.40
2023-05-09T23:10:10.531Z,7.70
2023-05-09T23:12:39.437Z,9.00
2023-05-09T23:15:09.239Z,7.70
2023-05-09T23:17:42.325Z,9.10
2023-05-09T23:20:11.910Z,9.30
2023-05-09T23:22:41.079Z,7.70
2023-05-09T23:25:15.657Z,9.40
2023-05-09T23:27:56.933Z,8.70
2023-05-09T23:30:29.197Z,9.00
2023-05-09T23:33:17.864Z,9.10
2023-05-09T23:35:49.393Z,8.30
2023-05-09T23:38:19.967Z,8.50
2023-05-09T23:40:54.656Z,7.80
2023-05-09T23:43:23.355Z,8.80
2023-05-09T23:45:56.946Z,8.60
2023-05-09T23:48:31.185Z,10.00
2023-05-09T23:51:03.026Z,8.80
2023-05-09T23:53:38.273Z,10.00
2023-05-09T23:56:26.835Z,8.50
2023-05-09T23:58:58.257Z,9.40
